Terminal Aerodrome Forecast
Issued by NWS

Current Version | Previous Version | Text Only | Print | Product List | Glossary On
Versions: 1 2 3 4 5 6 7 8 9 10 11 12 13 14 15 16 17
000
FTUS45 KTFX 251120
TAFBZN
TAF
KBZN 251120Z 2512/2612 VRB06KT P6SM VCSH OVC045
     FM251300 24005KT P6SM SCT050 BKN100
     FM251800 31004KT P6SM OVC100
     FM260900 VRB04KT P6SM BKN040=

USA.gov is the U.S. government's official web portal to all federal, state and local government web resources and services.